PALG

Details ICAO PALG (KLG)
Name Kalskag
Region USA (Alaska)
Timezone America/Anchorage (UTC-9.0)
Plans Departing 0
Arriving 0
Stats Elevation 55 ft / 17 m (AMSL)
Location 61.536274° -160.341329°
Runways 1
Magnetic Variation 12.196° E
Sunrise 2017-12-18 19:59:12 UTC / 2017-12-18 10:59:12 Local
Sunset 2017-12-19 01:19:53 UTC / 2017-12-18 16:19:53 Local
Advertisement - Login to hide

Runways

ID Width Length Bearing (true) Bearing (mag) Surface Threshold Offset Overrun Length
06 59 ft / 18 m 3,189 ft / 972 m 80.94° 68.74° Gravel 0 ft / 0 m 0 ft / 0 m
24 59 ft / 18 m 3,189 ft / 972 m 260.96° 248.76° Gravel 0 ft / 0 m 0 ft / 0 m

Map

Weather


0- 5 10 15 20 25 30 35+ Temperature / ° C

Clouds and Precipitation
Forecast for 2017-12-19 00:00 UTC. Updated an hour ago

Ground ~20,000 ft ~40,000 ft Winds

METAR

PALG 181956Z AUTO 08012KT 10SM SCT110 M05/M08 A2986 RMK AO2 SLP117 T10501078 FZRANO

TAF

Not found

Frequencies

Recorded 119.02 MHz ASOS
Unicom 122.80 MHz CTAF/UNICOM
Warning: Do not use this data for real-world aviation or navigation. No guarantee of current accuracy is given.